sensor_id;sensor_type;location;lat;lon;timestamp;pressure;altitude;pressure_sealevel;temperature;humidity
54900;BME280;40801;41.924;25.562;2023-07-29T00:00:36;99232.94;;;21.65;52.59
54900;BME280;40801;41.924;25.562;2023-07-29T00:03:02;99228.97;;;21.59;52.90
54900;BME280;40801;41.924;25.562;2023-07-29T00:05:27;99229.72;;;21.53;53.36
54900;BME280;40801;41.924;25.562;2023-07-29T00:07:53;99231.25;;;21.47;53.67
54900;BME280;40801;41.924;25.562;2023-07-29T00:10:18;99230.41;;;21.39;53.47
54900;BME280;40801;41.924;25.562;2023-07-29T00:12:43;99220.53;;;21.31;53.47
54900;BME280;40801;41.924;25.562;2023-07-29T00:15:09;99230.34;;;21.32;53.75
54900;BME280;40801;41.924;25.562;2023-07-29T00:17:35;99238.47;;;21.21;54.33
54900;BME280;40801;41.924;25.562;2023-07-29T00:22:44;99240.75;;;21.12;54.81
54900;BME280;40801;41.924;25.562;2023-07-29T00:25:09;99244.28;;;21.13;54.70
54900;BME280;40801;41.924;25.562;2023-07-29T00:27:34;99239.50;;;21.06;54.83
54900;BME280;40801;41.924;25.562;2023-07-29T00:30:00;99234.81;;;21.07;54.81
54900;BME280;40801;41.924;25.562;2023-07-29T00:32:28;99234.78;;;21.03;54.76
54900;BME280;40801;41.924;25.562;2023-07-29T00:34:54;99242.13;;;20.92;56.50
54900;BME280;40801;41.924;25.562;2023-07-29T00:37:20;99233.91;;;20.92;54.73
54900;BME280;40801;41.924;25.562;2023-07-29T00:39:45;99236.66;;;20.92;54.87
54900;BME280;40801;41.924;25.562;2023-07-29T00:42:10;99228.78;;;20.90;54.91
54900;BME280;40801;41.924;25.562;2023-07-29T00:44:36;99229.19;;;20.89;55.02
54900;BME280;40801;41.924;25.562;2023-07-29T00:47:02;99218.94;;;20.82;55.39
54900;BME280;40801;41.924;25.562;2023-07-29T00:49:30;99225.50;;;20.74;55.72
54900;BME280;40801;41.924;25.562;2023-07-29T00:51:55;99214.91;;;20.72;56.00
54900;BME280;40801;41.924;25.562;2023-07-29T00:54:21;99213.75;;;20.73;55.84
54900;BME280;40801;41.924;25.562;2023-07-29T00:56:47;99213.78;;;20.77;55.72
54900;BME280;40801;41.924;25.562;2023-07-29T00:59:12;99213.78;;;20.77;55.77
54900;BME280;40801;41.924;25.562;2023-07-29T01:01:38;99210.63;;;20.75;55.46
54900;BME280;40801;41.924;25.562;2023-07-29T01:04:04;99209.78;;;20.67;55.83
54900;BME280;40801;41.924;25.562;2023-07-29T01:06:47;99215.97;;;20.61;57.24
54900;BME280;40801;41.924;25.562;2023-07-29T01:09:33;99212.41;;;20.57;57.18
54900;BME280;40801;41.924;25.562;2023-07-29T01:12:20;99211.53;;;20.49;57.28
54900;BME280;40801;41.924;25.562;2023-07-29T01:17:51;99213.69;;;20.33;57.73
54900;BME280;40801;41.924;25.562;2023-07-29T01:20:19;99214.06;;;20.31;56.70
54900;BME280;40801;41.924;25.562;2023-07-29T01:22:46;99221.72;;;20.19;57.01
54900;BME280;40801;41.924;25.562;2023-07-29T01:25:12;99221.66;;;20.15;57.09
54900;BME280;40801;41.924;25.562;2023-07-29T01:27:38;99221.66;;;20.15;57.22
54900;BME280;40801;41.924;25.562;2023-07-29T01:30:05;99228.19;;;20.03;57.75
54900;BME280;40801;41.924;25.562;2023-07-29T01:32:56;99230.38;;;19.94;59.27
54900;BME280;40801;41.924;25.562;2023-07-29T01:35:25;99218.19;;;19.88;57.84
54900;BME280;40801;41.924;25.562;2023-07-29T01:37:55;99220.47;;;19.83;58.69
54900;BME280;40801;41.924;25.562;2023-07-29T01:40:27;99227.44;;;19.76;59.35
54900;BME280;40801;41.924;25.562;2023-07-29T01:42:52;99227.75;;;19.71;58.71
54900;BME280;40801;41.924;25.562;2023-07-29T01:45:18;99223.72;;;19.65;58.68
54900;BME280;40801;41.924;25.562;2023-07-29T01:47:44;99228.38;;;19.61;58.78
54900;BME280;40801;41.924;25.562;2023-07-29T01:50:09;99225.63;;;19.61;58.85
54900;BME280;40801;41.924;25.562;2023-07-29T01:52:35;99238.88;;;19.59;58.91
54900;BME280;40801;41.924;25.562;2023-07-29T01:55:01;99244.34;;;19.59;59.02
54900;BME280;40801;41.924;25.562;2023-07-29T01:57:27;99237.34;;;19.62;58.79
54900;BME280;40801;41.924;25.562;2023-07-29T01:59:52;99240.41;;;19.57;59.03
54900;BME280;40801;41.924;25.562;2023-07-29T02:02:17;99237.69;;;19.57;59.17
54900;BME280;40801;41.924;25.562;2023-07-29T02:04:43;99229.16;;;19.62;58.97
54900;BME280;40801;41.924;25.562;2023-07-29T02:07:08;99226.84;;;19.64;58.68
54900;BME280;40801;41.924;25.562;2023-07-29T02:09:34;99226.25;;;19.51;59.44
54900;BME280;40801;41.924;25.562;2023-07-29T02:11:59;99229.34;;;19.49;59.56
54900;BME280;40801;41.924;25.562;2023-07-29T02:14:24;99222.97;;;19.42;59.72
54900;BME280;40801;41.924;25.562;2023-07-29T02:16:50;99229.91;;;19.36;59.86
54900;BME280;40801;41.924;25.562;2023-07-29T02:19:16;99225.59;;;19.35;59.90
54900;BME280;40801;41.924;25.562;2023-07-29T02:21:41;99226.69;;;19.30;59.99
54900;BME280;40801;41.924;25.562;2023-07-29T02:24:06;99234.84;;;19.27;59.93
54900;BME280;40801;41.924;25.562;2023-07-29T02:26:32;99231.56;;;19.17;60.37
54900;BME280;40801;41.924;25.562;2023-07-29T02:28:57;99245.03;;;19.07;60.60
54900;BME280;40801;41.924;25.562;2023-07-29T02:31:24;99243.03;;;19.04;60.55
54900;BME280;40801;41.924;25.562;2023-07-29T02:33:50;99234.78;;;19.00;60.52
54900;BME280;40801;41.924;25.562;2023-07-29T02:36:16;99245.28;;;18.98;60.73
54900;BME280;40801;41.924;25.562;2023-07-29T02:38:42;99245.66;;;18.97;60.47
54900;BME280;40801;41.924;25.562;2023-07-29T02:41:08;99233.94;;;18.96;60.15
54900;BME280;40801;41.924;25.562;2023-07-29T02:43:35;99241.66;;;18.91;60.64
54900;BME280;40801;41.924;25.562;2023-07-29T02:46:01;99244.63;;;18.82;60.83
54900;BME280;40801;41.924;25.562;2023-07-29T02:48:27;99252.31;;;18.76;61.30
54900;BME280;40801;41.924;25.562;2023-07-29T02:50:53;99254.25;;;18.76;61.34
54900;BME280;40801;41.924;25.562;2023-07-29T02:53:19;99262.09;;;18.77;61.12
54900;BME280;40801;41.924;25.562;2023-07-29T02:55:45;99263.53;;;18.71;61.47
54900;BME280;40801;41.924;25.562;2023-07-29T02:58:10;99270.88;;;18.67;61.59
54900;BME280;40801;41.924;25.562;2023-07-29T03:00:35;99270.09;;;18.67;61.72
54900;BME280;40801;41.924;25.562;2023-07-29T03:03:01;99283.31;;;18.65;62.16
54900;BME280;40801;41.924;25.562;2023-07-29T03:05:29;99281.44;;;18.69;62.18
54900;BME280;40801;41.924;25.562;2023-07-29T03:07:54;99280.84;;;18.60;62.19
54900;BME280;40801;41.924;25.562;2023-07-29T03:10:20;99289.41;;;18.58;62.19
54900;BME280;40801;41.924;25.562;2023-07-29T03:12:46;99298.38;;;18.58;62.08
54900;BME280;40801;41.924;25.562;2023-07-29T03:15:12;99289.41;;;18.58;62.44
54900;BME280;40801;41.924;25.562;2023-07-29T03:17:37;99289.41;;;18.58;62.48
54900;BME280;40801;41.924;25.562;2023-07-29T03:20:03;99290.63;;;18.61;62.35
54900;BME280;40801;41.924;25.562;2023-07-29T03:22:28;99292.13;;;18.58;62.66
54900;BME280;40801;41.924;25.562;2023-07-29T03:24:54;99295.28;;;18.60;62.77
54900;BME280;40801;41.924;25.562;2023-07-29T03:27:19;99288.78;;;18.65;62.72
54900;BME280;40801;41.924;25.562;2023-07-29T03:29:45;99275.13;;;18.65;62.66
54900;BME280;40801;41.924;25.562;2023-07-29T03:32:11;99282.66;;;18.71;62.83
54900;BME280;40801;41.924;25.562;2023-07-29T03:34:36;99277.97;;;18.72;62.83
54900;BME280;40801;41.924;25.562;2023-07-29T03:37:01;99284.25;;;18.72;62.64
54900;BME280;40801;41.924;25.562;2023-07-29T03:39:27;99279.06;;;18.67;62.64
54900;BME280;40801;41.924;25.562;2023-07-29T03:41:52;99279.50;;;18.69;62.70
54900;BME280;40801;41.924;25.562;2023-07-29T03:44:18;99280.78;;;18.75;62.57
54900;BME280;40801;41.924;25.562;2023-07-29T03:46:44;99284.59;;;18.71;62.63
54900;BME280;40801;41.924;25.562;2023-07-29T03:49:10;99283.03;;;18.70;62.44
54900;BME280;40801;41.924;25.562;2023-07-29T03:51:35;99282.00;;;18.78;62.25
54900;BME280;40801;41.924;25.562;2023-07-29T03:54:01;99290.47;;;18.92;61.38
54900;BME280;40801;41.924;25.562;2023-07-29T03:56:26;99292.25;;;19.04;60.96
54900;BME280;40801;41.924;25.562;2023-07-29T03:58:52;99296.97;;;19.07;61.20
54900;BME280;40801;41.924;25.562;2023-07-29T04:01:17;99309.94;;;19.10;61.38
54900;BME280;40801;41.924;25.562;2023-07-29T04:03:45;99315.09;;;19.15;61.28
54900;BME280;40801;41.924;25.562;2023-07-29T04:06:11;99313.22;;;19.19;61.31
54900;BME280;40801;41.924;25.562;2023-07-29T04:08:36;99312.13;;;19.24;61.36
54900;BME280;40801;41.924;25.562;2023-07-29T04:11:02;99316.88;;;19.27;60.83
54900;BME280;40801;41.924;25.562;2023-07-29T04:13:27;99320.75;;;19.26;60.88
54900;BME280;40801;41.924;25.562;2023-07-29T04:15:53;99315.41;;;19.33;60.50
54900;BME280;40801;41.924;25.562;2023-07-29T04:18:18;99318.50;;;19.31;60.62
54900;BME280;40801;41.924;25.562;2023-07-29T04:20:44;99315.97;;;19.42;60.33
54900;BME280;40801;41.924;25.562;2023-07-29T04:23:09;99319.69;;;19.53;60.20
54900;BME280;40801;41.924;25.562;2023-07-29T04:25:35;99321.56;;;19.72;59.68
54900;BME280;40801;41.924;25.562;2023-07-29T04:28:00;99324.19;;;19.91;59.01
54900;BME280;40801;41.924;25.562;2023-07-29T04:30:28;99320.06;;;20.01;58.68
54900;BME280;40801;41.924;25.562;2023-07-29T04:32:53;99328.31;;;20.04;58.77
54900;BME280;40801;41.924;25.562;2023-07-29T04:35:19;99322.22;;;20.18;58.09
54900;BME280;40801;41.924;25.562;2023-07-29T04:37:44;99321.25;;;20.30;57.96
54900;BME280;40801;41.924;25.562;2023-07-29T04:40:10;99317.88;;;20.40;57.66
54900;BME280;40801;41.924;25.562;2023-07-29T04:42:36;99321.91;;;20.50;57.46
54900;BME280;40801;41.924;25.562;2023-07-29T04:45:02;99324.75;;;20.57;57.30
54900;BME280;40801;41.924;25.562;2023-07-29T04:47:28;99330.34;;;20.67;56.92
54900;BME280;40801;41.924;25.562;2023-07-29T04:49:53;99332.91;;;20.83;56.73
54900;BME280;40801;41.924;25.562;2023-07-29T04:52:19;99333.44;;;20.99;56.26
54900;BME280;40801;41.924;25.562;2023-07-29T04:54:44;99319.50;;;21.12;55.83
54900;BME280;40801;41.924;25.562;2023-07-29T04:57:10;99322.78;;;21.24;55.41
54900;BME280;40801;41.924;25.562;2023-07-29T04:59:35;99330.78;;;21.40;55.08
54900;BME280;40801;41.924;25.562;2023-07-29T05:02:01;99331.25;;;21.53;54.61
54900;BME280;40801;41.924;25.562;2023-07-29T05:04:26;99330.94;;;21.61;54.64
54900;BME280;40801;41.924;25.562;2023-07-29T05:06:51;99335.66;;;21.64;54.58
54900;BME280;40801;41.924;25.562;2023-07-29T05:09:18;99342.41;;;21.74;54.47
54900;BME280;40801;41.924;25.562;2023-07-29T05:11:45;99345.75;;;21.98;53.91
54900;BME280;40801;41.924;25.562;2023-07-29T05:14:12;99345.84;;;22.12;53.52
54900;BME280;40801;41.924;25.562;2023-07-29T05:16:37;99344.03;;;22.37;52.80
54900;BME280;40801;41.924;25.562;2023-07-29T05:19:03;99337.78;;;22.44;52.24
54900;BME280;40801;41.924;25.562;2023-07-29T05:21:29;99345.34;;;22.61;51.65
54900;BME280;40801;41.924;25.562;2023-07-29T05:23:54;99348.81;;;22.54;51.98
54900;BME280;40801;41.924;25.562;2023-07-29T05:26:20;99346.16;;;22.72;51.92
54900;BME280;40801;41.924;25.562;2023-07-29T05:28:45;99345.47;;;22.86;51.58
54900;BME280;40801;41.924;25.562;2023-07-29T05:31:10;99344.72;;;22.96;51.20
54900;BME280;40801;41.924;25.562;2023-07-29T05:33:36;99349.03;;;23.08;51.16
54900;BME280;40801;41.924;25.562;2023-07-29T05:36:02;99351.47;;;23.27;50.59
54900;BME280;40801;41.924;25.562;2023-07-29T05:38:27;99358.97;;;23.44;49.87
54900;BME280;40801;41.924;25.562;2023-07-29T05:40:53;99352.28;;;23.42;50.34
54900;BME280;40801;41.924;25.562;2023-07-29T05:43:18;99344.81;;;23.53;50.28
54900;BME280;40801;41.924;25.562;2023-07-29T05:45:43;99354.66;;;23.65;49.66
54900;BME280;40801;41.924;25.562;2023-07-29T05:48:09;99353.91;;;23.71;49.18
54900;BME280;40801;41.924;25.562;2023-07-29T05:50:34;99357.41;;;23.86;49.03
54900;BME280;40801;41.924;25.562;2023-07-29T05:52:59;99349.16;;;24.04;48.59
54900;BME280;40801;41.924;25.562;2023-07-29T05:55:25;99355.06;;;24.06;48.49
54900;BME280;40801;41.924;25.562;2023-07-29T05:57:50;99356.19;;;24.26;48.24
54900;BME280;40801;41.924;25.562;2023-07-29T06:00:16;99347.94;;;24.33;48.26
54900;BME280;40801;41.924;25.562;2023-07-29T06:02:41;99358.91;;;24.48;47.66
54900;BME280;40801;41.924;25.562;2023-07-29T06:05:07;99346.28;;;24.61;47.45
54900;BME280;40801;41.924;25.562;2023-07-29T06:07:32;99349.34;;;24.77;46.93
54900;BME280;40801;41.924;25.562;2023-07-29T06:09:59;99351.28;;;24.91;46.57
54900;BME280;40801;41.924;25.562;2023-07-29T06:12:25;99339.78;;;25.07;46.34
54900;BME280;40801;41.924;25.562;2023-07-29T06:14:50;99351.53;;;25.14;45.97
54900;BME280;40801;41.924;25.562;2023-07-29T06:17:15;99344.28;;;25.38;45.35
54900;BME280;40801;41.924;25.562;2023-07-29T06:19:41;99339.47;;;25.53;45.56
54900;BME280;40801;41.924;25.562;2023-07-29T06:22:06;99348.06;;;25.62;44.95
54900;BME280;40801;41.924;25.562;2023-07-29T06:24:32;99350.38;;;25.71;44.89
54900;BME280;40801;41.924;25.562;2023-07-29T06:26:58;99342.03;;;25.81;44.96
54900;BME280;40801;41.924;25.562;2023-07-29T06:29:23;99339.56;;;25.90;43.81
54900;BME280;40801;41.924;25.562;2023-07-29T06:31:48;99337.13;;;25.96;43.80
54900;BME280;40801;41.924;25.562;2023-07-29T06:34:14;99338.50;;;26.18;42.75
54900;BME280;40801;41.924;25.562;2023-07-29T06:36:39;99338.56;;;26.52;42.06
54900;BME280;40801;41.924;25.562;2023-07-29T06:39:05;99337.66;;;26.59;40.26
54900;BME280;40801;41.924;25.562;2023-07-29T06:41:30;99337.72;;;26.86;39.74
54900;BME280;40801;41.924;25.562;2023-07-29T06:43:55;99342.91;;;27.14;39.16
54900;BME280;40801;41.924;25.562;2023-07-29T06:46:21;99344.38;;;27.23;38.34
54900;BME280;40801;41.924;25.562;2023-07-29T06:48:46;99338.78;;;27.26;38.04
54900;BME280;40801;41.924;25.562;2023-07-29T06:51:12;99341.81;;;27.35;37.86
54900;BME280;40801;41.924;25.562;2023-07-29T06:53:37;99344.22;;;27.33;37.40
54900;BME280;40801;41.924;25.562;2023-07-29T06:56:03;99342.28;;;27.57;37.60
54900;BME280;40801;41.924;25.562;2023-07-29T06:58:29;99345.16;;;27.77;37.77
54900;BME280;40801;41.924;25.562;2023-07-29T07:00:55;99348.56;;;27.85;38.08
54900;BME280;40801;41.924;25.562;2023-07-29T07:03:20;99339.47;;;28.07;36.82
54900;BME280;40801;41.924;25.562;2023-07-29T07:05:46;99337.88;;;28.30;36.69
54900;BME280;40801;41.924;25.562;2023-07-29T07:08:11;99333.69;;;28.42;35.72
54900;BME280;40801;41.924;25.562;2023-07-29T07:10:36;99338.81;;;28.63;34.76
54900;BME280;40801;41.924;25.562;2023-07-29T07:13:02;99335.38;;;28.75;34.35
54900;BME280;40801;41.924;25.562;2023-07-29T07:15:27;99333.75;;;28.78;34.59
54900;BME280;40801;41.924;25.562;2023-07-29T07:17:53;99326.97;;;28.79;34.22
54900;BME280;40801;41.924;25.562;2023-07-29T07:20:18;99326.00;;;28.89;34.27
54900;BME280;40801;41.924;25.562;2023-07-29T07:22:44;99324.13;;;28.82;34.18
54900;BME280;40801;41.924;25.562;2023-07-29T07:25:09;99323.06;;;28.96;34.04
54900;BME280;40801;41.924;25.562;2023-07-29T07:27:35;99316.75;;;29.12;33.79
54900;BME280;40801;41.924;25.562;2023-07-29T07:30:01;99317.88;;;29.14;34.20
54900;BME280;40801;41.924;25.562;2023-07-29T07:32:26;99325.09;;;29.12;34.54
54900;BME280;40801;41.924;25.562;2023-07-29T07:34:52;99317.44;;;29.16;34.62
54900;BME280;40801;41.924;25.562;2023-07-29T07:37:18;99319.78;;;29.17;34.15
54900;BME280;40801;41.924;25.562;2023-07-29T07:39:43;99321.66;;;29.24;33.95
54900;BME280;40801;41.924;25.562;2023-07-29T07:42:08;99311.56;;;29.30;33.79
54900;BME280;40801;41.924;25.562;2023-07-29T07:44:34;99302.91;;;29.28;33.77
54900;BME280;40801;41.924;25.562;2023-07-29T07:46:59;99306.19;;;29.39;34.23
54900;BME280;40801;41.924;25.562;2023-07-29T07:49:24;99299.81;;;29.58;33.97
54900;BME280;40801;41.924;25.562;2023-07-29T07:51:50;99298.81;;;29.49;33.63
54900;BME280;40801;41.924;25.562;2023-07-29T07:54:15;99293.97;;;29.69;32.92
54900;BME280;40801;41.924;25.562;2023-07-29T07:56:41;99302.88;;;29.93;32.11
54900;BME280;40801;41.924;25.562;2023-07-29T07:59:06;99289.88;;;30.19;32.03
54900;BME280;40801;41.924;25.562;2023-07-29T08:01:35;99299.22;;;30.54;31.71
54900;BME280;40801;41.924;25.562;2023-07-29T08:04:01;99286.59;;;30.78;31.39
54900;BME280;40801;41.924;25.562;2023-07-29T08:06:27;99284.16;;;31.06;31.30
54900;BME280;40801;41.924;25.562;2023-07-29T08:08:52;99286.19;;;31.31;31.07
54900;BME280;40801;41.924;25.562;2023-07-29T08:11:18;99290.94;;;31.56;31.25
54900;BME280;40801;41.924;25.562;2023-07-29T08:13:43;99289.09;;;32.09;30.63
54900;BME280;40801;41.924;25.562;2023-07-29T08:16:08;99282.06;;;32.39;30.14
54900;BME280;40801;41.924;25.562;2023-07-29T08:18:34;99278.38;;;32.73;29.29
54900;BME280;40801;41.924;25.562;2023-07-29T08:21:00;99271.88;;;32.98;28.42
54900;BME280;40801;41.924;25.562;2023-07-29T08:23:47;99269.44;;;33.18;26.87
54900;BME280;40801;41.924;25.562;2023-07-29T08:26:12;99265.31;;;33.41;27.34
54900;BME280;40801;41.924;25.562;2023-07-29T08:28:38;99262.41;;;33.81;27.98
54900;BME280;40801;41.924;25.562;2023-07-29T08:31:04;99271.63;;;34.00;27.07
54900;BME280;40801;41.924;25.562;2023-07-29T08:33:30;99260.69;;;34.48;26.13
54900;BME280;40801;41.924;25.562;2023-07-29T08:35:56;99261.97;;;34.89;25.81
54900;BME280;40801;41.924;25.562;2023-07-29T08:38:22;99262.06;;;35.04;25.08
54900;BME280;40801;41.924;25.562;2023-07-29T08:43:38;99261.53;;;35.15;24.38
54900;BME280;40801;41.924;25.562;2023-07-29T08:46:03;99256.28;;;35.64;24.29
54900;BME280;40801;41.924;25.562;2023-07-29T08:48:39;99258.13;;;35.91;23.35
54900;BME280;40801;41.924;25.562;2023-07-29T08:51:05;99254.66;;;36.11;23.74
54900;BME280;40801;41.924;25.562;2023-07-29T08:53:31;99252.94;;;36.28;23.45
54900;BME280;40801;41.924;25.562;2023-07-29T08:55:57;99246.75;;;36.54;23.08
54900;BME280;40801;41.924;25.562;2023-07-29T08:58:23;99242.31;;;36.33;23.10
54900;BME280;40801;41.924;25.562;2023-07-29T09:00:50;99244.84;;;36.45;23.04
54900;BME280;40801;41.924;25.562;2023-07-29T09:03:16;99233.34;;;36.93;22.70
54900;BME280;40801;41.924;25.562;2023-07-29T09:05:41;99239.66;;;36.88;22.24
54900;BME280;40801;41.924;25.562;2023-07-29T09:08:07;99229.03;;;37.12;22.03
54900;BME280;40801;41.924;25.562;2023-07-29T09:10:36;99235.66;;;37.30;21.78
54900;BME280;40801;41.924;25.562;2023-07-29T09:13:02;99230.25;;;36.91;22.19
54900;BME280;40801;41.924;25.562;2023-07-29T09:15:29;99222.09;;;37.28;21.69
54900;BME280;40801;41.924;25.562;2023-07-29T09:17:56;99217.03;;;37.52;21.92
54900;BME280;40801;41.924;25.562;2023-07-29T09:20:26;99209.28;;;37.47;21.12
54900;BME280;40801;41.924;25.562;2023-07-29T09:22:53;99200.25;;;37.38;20.70
54900;BME280;40801;41.924;25.562;2023-07-29T09:25:37;99205.22;;;36.93;20.99
54900;BME280;40801;41.924;25.562;2023-07-29T09:28:13;99208.81;;;36.94;20.76
54900;BME280;40801;41.924;25.562;2023-07-29T09:30:40;99202.06;;;37.61;21.21
54900;BME280;40801;41.924;25.562;2023-07-29T09:33:07;99200.38;;;37.49;21.23
54900;BME280;40801;41.924;25.562;2023-07-29T09:35:34;99206.63;;;38.05;20.88
54900;BME280;40801;41.924;25.562;2023-07-29T09:38:01;99199.28;;;38.39;20.44
54900;BME280;40801;41.924;25.562;2023-07-29T09:40:26;99204.88;;;38.65;20.64
54900;BME280;40801;41.924;25.562;2023-07-29T09:42:53;99195.22;;;39.14;19.87
54900;BME280;40801;41.924;25.562;2023-07-29T09:45:24;99194.81;;;39.38;19.50
54900;BME280;40801;41.924;25.562;2023-07-29T09:47:51;99189.72;;;39.48;19.07
54900;BME280;40801;41.924;25.562;2023-07-29T09:50:17;99184.06;;;39.48;18.59
54900;BME280;40801;41.924;25.562;2023-07-29T09:52:43;99181.03;;;39.57;19.21
54900;BME280;40801;41.924;25.562;2023-07-29T09:55:12;99185.38;;;39.52;18.72
54900;BME280;40801;41.924;25.562;2023-07-29T09:57:39;99182.72;;;39.32;19.14
54900;BME280;40801;41.924;25.562;2023-07-29T10:00:05;99181.69;;;39.29;20.06
54900;BME280;40801;41.924;25.562;2023-07-29T10:02:38;99172.94;;;40.09;19.28
54900;BME280;40801;41.924;25.562;2023-07-29T10:05:05;99174.00;;;40.23;19.20
54900;BME280;40801;41.924;25.562;2023-07-29T10:07:31;99177.84;;;40.59;18.24
54900;BME280;40801;41.924;25.562;2023-07-29T10:09:57;99175.03;;;40.53;18.14
54900;BME280;40801;41.924;25.562;2023-07-29T10:12:24;99167.81;;;39.97;18.17
54900;BME280;40801;41.924;25.562;2023-07-29T10:14:50;99164.50;;;40.54;17.89
54900;BME280;40801;41.924;25.562;2023-07-29T10:17:15;99165.50;;;40.01;18.42
54900;BME280;40801;41.924;25.562;2023-07-29T10:19:41;99159.09;;;40.50;18.24
54900;BME280;40801;41.924;25.562;2023-07-29T10:22:09;99154.41;;;40.75;17.57
54900;BME280;40801;41.924;25.562;2023-07-29T10:24:36;99154.44;;;40.81;17.59
54900;BME280;40801;41.924;25.562;2023-07-29T10:27:06;99149.78;;;40.72;17.13
54900;BME280;40801;41.924;25.562;2023-07-29T10:29:35;99151.88;;;40.44;17.54
54900;BME280;40801;41.924;25.562;2023-07-29T10:32:04;99148.28;;;40.60;17.56
54900;BME280;40801;41.924;25.562;2023-07-29T10:34:31;99144.94;;;40.11;17.18
54900;BME280;40801;41.924;25.562;2023-07-29T10:36:57;99141.63;;;40.24;16.94
54900;BME280;40801;41.924;25.562;2023-07-29T10:39:24;99134.66;;;39.91;17.96
54900;BME280;40801;41.924;25.562;2023-07-29T10:42:05;99130.84;;;40.22;17.07
54900;BME280;40801;41.924;25.562;2023-07-29T10:49:40;99127.78;;;41.29;16.22
54900;BME280;40801;41.924;25.562;2023-07-29T10:52:05;99129.63;;;41.15;16.06
54900;BME280;40801;41.924;25.562;2023-07-29T10:54:50;99120.44;;;40.92;16.35
54900;BME280;40801;41.924;25.562;2023-07-29T10:57:33;99121.75;;;40.91;16.82
54900;BME280;40801;41.924;25.562;2023-07-29T10:59:59;99116.97;;;41.22;16.44
54900;BME280;40801;41.924;25.562;2023-07-29T11:02:32;99112.47;;;41.90;15.61
54900;BME280;40801;41.924;25.562;2023-07-29T11:05:05;99107.91;;;41.81;15.40
54900;BME280;40801;41.924;25.562;2023-07-29T11:07:30;99109.47;;;42.12;15.77
54900;BME280;40801;41.924;25.562;2023-07-29T11:10:05;99107.72;;;42.03;15.44
54900;BME280;40801;41.924;25.562;2023-07-29T11:12:50;99104.97;;;41.92;15.13
54900;BME280;40801;41.924;25.562;2023-07-29T11:15:29;99098.31;;;42.20;15.21
54900;BME280;40801;41.924;25.562;2023-07-29T11:17:59;99103.75;;;42.18;14.93
54900;BME280;40801;41.924;25.562;2023-07-29T11:20:27;99100.91;;;42.23;15.29
54900;BME280;40801;41.924;25.562;2023-07-29T11:22:54;99095.22;;;41.52;14.97
54900;BME280;40801;41.924;25.562;2023-07-29T11:25:21;99096.69;;;41.70;14.95
54900;BME280;40801;41.924;25.562;2023-07-29T11:27:46;99099.22;;;42.03;15.09
54900;BME280;40801;41.924;25.562;2023-07-29T11:30:14;99094.88;;;42.02;14.69
54900;BME280;40801;41.924;25.562;2023-07-29T11:32:41;99091.00;;;42.60;14.71
54900;BME280;40801;41.924;25.562;2023-07-29T11:35:14;99087.25;;;42.71;13.97
54900;BME280;40801;41.924;25.562;2023-07-29T11:37:41;99091.41;;;42.15;14.71
54900;BME280;40801;41.924;25.562;2023-07-29T11:40:08;99076.69;;;42.22;14.76
54900;BME280;40801;41.924;25.562;2023-07-29T11:42:36;99075.59;;;42.74;14.51
54900;BME280;40801;41.924;25.562;2023-07-29T11:45:03;99069.16;;;42.98;14.99
54900;BME280;40801;41.924;25.562;2023-07-29T11:47:31;99069.91;;;43.55;14.41
54900;BME280;40801;41.924;25.562;2023-07-29T11:50:01;99068.59;;;43.56;13.74
54900;BME280;40801;41.924;25.562;2023-07-29T11:52:27;99062.19;;;43.37;14.37
54900;BME280;40801;41.924;25.562;2023-07-29T11:54:54;99064.56;;;43.14;14.40
54900;BME280;40801;41.924;25.562;2023-07-29T11:57:19;99055.50;;;43.34;14.33
54900;BME280;40801;41.924;25.562;2023-07-29T11:59:46;99060.09;;;43.00;14.48
54900;BME280;40801;41.924;25.562;2023-07-29T12:02:14;99062.63;;;43.03;14.06
54900;BME280;40801;41.924;25.562;2023-07-29T12:04:41;99053.53;;;43.10;14.68
54900;BME280;40801;41.924;25.562;2023-07-29T12:07:07;99060.34;;;43.39;14.16
54900;BME280;40801;41.924;25.562;2023-07-29T12:09:37;99052.72;;;42.48;13.96
54900;BME280;40801;41.924;25.562;2023-07-29T12:12:06;99057.97;;;41.78;14.28
54900;BME280;40801;41.924;25.562;2023-07-29T12:14:32;99054.66;;;42.34;14.31
54900;BME280;40801;41.924;25.562;2023-07-29T12:17:02;99048.75;;;43.00;14.23
54900;BME280;40801;41.924;25.562;2023-07-29T12:19:35;99054.34;;;42.37;14.25
54900;BME280;40801;41.924;25.562;2023-07-29T12:22:02;99051.91;;;42.96;13.44
54900;BME280;40801;41.924;25.562;2023-07-29T12:24:32;99043.16;;;43.32;13.73
54900;BME280;40801;41.924;25.562;2023-07-29T12:26:57;99041.91;;;43.27;14.10
54900;BME280;40801;41.924;25.562;2023-07-29T12:29:23;99032.50;;;43.19;13.74
54900;BME280;40801;41.924;25.562;2023-07-29T12:31:49;99037.72;;;42.96;14.18
54900;BME280;40801;41.924;25.562;2023-07-29T12:34:21;99040.53;;;42.28;14.45
54900;BME280;40801;41.924;25.562;2023-07-29T12:36:50;99027.47;;;42.68;13.71
54900;BME280;40801;41.924;25.562;2023-07-29T12:39:20;99025.44;;;42.88;14.16
54900;BME280;40801;41.924;25.562;2023-07-29T12:41:47;99034.81;;;42.77;14.02
54900;BME280;40801;41.924;25.562;2023-07-29T12:44:13;99035.78;;;41.82;14.38
54900;BME280;40801;41.924;25.562;2023-07-29T12:46:38;99035.41;;;42.51;14.07
54900;BME280;40801;41.924;25.562;2023-07-29T12:49:04;99034.63;;;42.26;14.02
54900;BME280;40801;41.924;25.562;2023-07-29T12:51:30;99035.78;;;43.04;14.15
54900;BME280;40801;41.924;25.562;2023-07-29T12:53:55;99034.88;;;43.15;13.81
54900;BME280;40801;41.924;25.562;2023-07-29T12:56:20;99023.94;;;43.56;13.92
54900;BME280;40801;41.924;25.562;2023-07-29T12:58:46;99035.06;;;43.54;13.55
54900;BME280;40801;41.924;25.562;2023-07-29T13:01:11;99026.34;;;43.66;13.74